sensor_id;sensor_type;location;lat;lon;timestamp;pressure;altitude;pressure_sealevel;temperature;humidity
43701;BME280;58809;47.984;7.964;2023-03-13T00:01:24;96842.19;;;16.36;51.50
43701;BME280;58809;47.984;7.964;2023-03-13T00:04:26;96838.94;;;16.34;51.85
43701;BME280;58809;47.984;7.964;2023-03-13T00:07:27;96839.66;;;16.42;51.94
43701;BME280;58809;47.984;7.964;2023-03-13T00:10:29;96838.03;;;16.41;51.73
43701;BME280;58809;47.984;7.964;2023-03-13T00:13:30;96831.88;;;16.40;51.77
43701;BME280;58809;47.984;7.964;2023-03-13T00:16:32;96828.94;;;16.30;52.05
43701;BME280;58809;47.984;7.964;2023-03-13T00:19:36;96820.56;;;16.26;52.57
43701;BME280;58809;47.984;7.964;2023-03-13T00:22:37;96827.44;;;16.34;52.45
43701;BME280;58809;47.984;7.964;2023-03-13T00:25:39;96817.94;;;16.38;52.20
43701;BME280;58809;47.984;7.964;2023-03-13T00:28:42;96813.19;;;16.40;52.16
43701;BME280;58809;47.984;7.964;2023-03-13T00:31:46;96820.91;;;16.60;52.03
43701;BME280;58809;47.984;7.964;2023-03-13T00:34:49;96811.88;;;16.73;51.73
43701;BME280;58809;47.984;7.964;2023-03-13T00:38:04;96805.38;;;16.69;51.98
43701;BME280;58809;47.984;7.964;2023-03-13T00:41:08;96810.00;;;16.73;51.82
43701;BME280;58809;47.984;7.964;2023-03-13T00:44:13;96795.28;;;16.83;51.51
43701;BME280;58809;47.984;7.964;2023-03-13T00:47:14;96794.75;;;16.92;51.61
43701;BME280;58809;47.984;7.964;2023-03-13T00:50:17;96796.00;;;16.90;51.39
43701;BME280;58809;47.984;7.964;2023-03-13T00:53:18;96789.03;;;16.89;51.39
43701;BME280;58809;47.984;7.964;2023-03-13T00:56:20;96788.69;;;16.85;51.57
43701;BME280;58809;47.984;7.964;2023-03-13T00:59:22;96801.22;;;16.85;51.88
43701;BME280;58809;47.984;7.964;2023-03-13T01:02:24;96790.22;;;16.93;51.54
43701;BME280;58809;47.984;7.964;2023-03-13T01:05:25;96794.84;;;16.86;51.72
43701;BME280;58809;47.984;7.964;2023-03-13T01:08:28;96793.09;;;16.91;51.72
43701;BME280;58809;47.984;7.964;2023-03-13T01:11:31;96803.13;;;16.96;51.75
43701;BME280;58809;47.984;7.964;2023-03-13T01:14:34;96797.63;;;17.03;51.78
43701;BME280;58809;47.984;7.964;2023-03-13T01:17:35;96801.81;;;16.99;52.17
43701;BME280;58809;47.984;7.964;2023-03-13T01:20:37;96776.38;;;16.96;52.29
43701;BME280;58809;47.984;7.964;2023-03-13T01:23:41;96794.50;;;17.18;51.86
43701;BME280;58809;47.984;7.964;2023-03-13T01:26:43;96785.78;;;17.22;52.11
43701;BME280;58809;47.984;7.964;2023-03-13T01:29:45;96765.22;;;17.11;52.35
43701;BME280;58809;47.984;7.964;2023-03-13T01:32:46;96774.06;;;17.11;52.45
43701;BME280;58809;47.984;7.964;2023-03-13T01:35:48;96779.41;;;17.11;52.66
43701;BME280;58809;47.984;7.964;2023-03-13T01:38:52;96769.06;;;17.15;52.91
43701;BME280;58809;47.984;7.964;2023-03-13T01:41:54;96775.78;;;17.06;53.17
43701;BME280;58809;47.984;7.964;2023-03-13T01:44:56;96768.81;;;17.05;53.58
43701;BME280;58809;47.984;7.964;2023-03-13T01:47:59;96767.53;;;16.84;53.75
43701;BME280;58809;47.984;7.964;2023-03-13T01:51:43;96755.31;;;16.76;54.28
43701;BME280;58809;47.984;7.964;2023-03-13T01:57:51;96738.09;;;16.72;54.72
43701;BME280;58809;47.984;7.964;2023-03-13T02:00:56;96738.47;;;16.64;55.33
43701;BME280;58809;47.984;7.964;2023-03-13T02:03:58;96721.94;;;16.55;55.82
43701;BME280;58809;47.984;7.964;2023-03-13T02:07:04;96727.75;;;16.52;56.14
43701;BME280;58809;47.984;7.964;2023-03-13T02:10:08;96715.78;;;16.43;56.49
43701;BME280;58809;47.984;7.964;2023-03-13T02:13:11;96711.63;;;16.47;56.35
43701;BME280;58809;47.984;7.964;2023-03-13T02:16:16;96687.47;;;16.42;56.28
43701;BME280;58809;47.984;7.964;2023-03-13T02:19:34;96671.91;;;16.62;55.96
43701;BME280;58809;47.984;7.964;2023-03-13T02:22:51;96675.97;;;16.53;55.81
43701;BME280;58809;47.984;7.964;2023-03-13T02:25:55;96682.59;;;16.62;55.34
43701;BME280;58809;47.984;7.964;2023-03-13T02:29:04;96688.50;;;16.64;54.75
43701;BME280;58809;47.984;7.964;2023-03-13T02:32:06;96673.63;;;16.68;54.57
43701;BME280;58809;47.984;7.964;2023-03-13T02:35:12;96677.81;;;16.64;54.47
43701;BME280;58809;47.984;7.964;2023-03-13T02:38:19;96649.50;;;16.63;54.83
43701;BME280;58809;47.984;7.964;2023-03-13T02:41:23;96649.03;;;16.78;54.50
43701;BME280;58809;47.984;7.964;2023-03-13T02:44:26;96648.53;;;16.81;54.84
43701;BME280;58809;47.984;7.964;2023-03-13T02:47:28;96649.25;;;16.77;54.96
43701;BME280;58809;47.984;7.964;2023-03-13T02:50:29;96648.34;;;16.83;54.74
43701;BME280;58809;47.984;7.964;2023-03-13T02:53:32;96644.84;;;16.70;55.16
43701;BME280;58809;47.984;7.964;2023-03-13T02:56:37;96654.59;;;16.77;55.06
43701;BME280;58809;47.984;7.964;2023-03-13T02:59:40;96648.44;;;16.88;54.89
43701;BME280;58809;47.984;7.964;2023-03-13T03:02:43;96640.56;;;16.58;55.46
43701;BME280;58809;47.984;7.964;2023-03-13T03:05:44;96664.81;;;16.80;54.68
43701;BME280;58809;47.984;7.964;2023-03-13T03:08:46;96638.78;;;16.87;54.81
43701;BME280;58809;47.984;7.964;2023-03-13T03:11:48;96632.88;;;16.85;55.09
43701;BME280;58809;47.984;7.964;2023-03-13T03:14:50;96658.28;;;16.75;55.20
43701;BME280;58809;47.984;7.964;2023-03-13T03:17:52;96638.00;;;16.74;55.31
43701;BME280;58809;47.984;7.964;2023-03-13T03:20:54;96639.72;;;16.81;55.53
43701;BME280;58809;47.984;7.964;2023-03-13T03:23:56;96646.25;;;16.85;55.56
43701;BME280;58809;47.984;7.964;2023-03-13T03:26:58;96666.22;;;16.70;55.75
43701;BME280;58809;47.984;7.964;2023-03-13T03:30:05;96646.22;;;16.61;56.02
43701;BME280;58809;47.984;7.964;2023-03-13T03:33:09;96641.72;;;16.62;56.20
43701;BME280;58809;47.984;7.964;2023-03-13T03:36:13;96644.16;;;16.63;55.39
43701;BME280;58809;47.984;7.964;2023-03-13T03:39:15;96634.16;;;16.70;54.80
43701;BME280;58809;47.984;7.964;2023-03-13T03:42:17;96622.53;;;16.77;54.92
43701;BME280;58809;47.984;7.964;2023-03-13T03:45:19;96629.97;;;16.74;54.65
43701;BME280;58809;47.984;7.964;2023-03-13T03:48:21;96635.31;;;16.74;54.50
43701;BME280;58809;47.984;7.964;2023-03-13T03:51:23;96629.63;;;16.83;54.19
43701;BME280;58809;47.984;7.964;2023-03-13T03:54:25;96619.75;;;16.71;54.66
43701;BME280;58809;47.984;7.964;2023-03-13T03:57:26;96640.66;;;16.51;55.72
43701;BME280;58809;47.984;7.964;2023-03-13T04:00:28;96630.22;;;16.38;56.71
43701;BME280;58809;47.984;7.964;2023-03-13T04:03:30;96639.59;;;16.05;57.56
43701;BME280;58809;47.984;7.964;2023-03-13T04:06:31;96639.03;;;16.14;57.63
43701;BME280;58809;47.984;7.964;2023-03-13T04:09:35;96627.53;;;16.14;57.79
43701;BME280;58809;47.984;7.964;2023-03-13T04:12:39;96611.84;;;16.06;58.47
43701;BME280;58809;47.984;7.964;2023-03-13T04:15:41;96613.94;;;16.04;58.20
43701;BME280;58809;47.984;7.964;2023-03-13T04:18:44;96600.25;;;16.24;57.64
43701;BME280;58809;47.984;7.964;2023-03-13T04:21:46;96598.88;;;16.33;57.25
43701;BME280;58809;47.984;7.964;2023-03-13T04:24:51;96604.69;;;16.42;56.94
43701;BME280;58809;47.984;7.964;2023-03-13T04:27:55;96594.31;;;16.57;56.49
43701;BME280;58809;47.984;7.964;2023-03-13T04:31:01;96600.47;;;16.69;55.82
43701;BME280;58809;47.984;7.964;2023-03-13T04:34:17;96598.84;;;16.68;55.97
43701;BME280;58809;47.984;7.964;2023-03-13T04:37:25;96600.00;;;16.72;55.69
43701;BME280;58809;47.984;7.964;2023-03-13T04:40:45;96585.63;;;16.85;55.42
43701;BME280;58809;47.984;7.964;2023-03-13T04:43:59;96589.66;;;16.88;55.51
43701;BME280;58809;47.984;7.964;2023-03-13T04:47:39;96579.78;;;16.77;56.05
43701;BME280;58809;47.984;7.964;2023-03-13T04:50:59;96588.13;;;16.92;55.88
43701;BME280;58809;47.984;7.964;2023-03-13T04:54:05;96589.53;;;16.95;55.75
43701;BME280;58809;47.984;7.964;2023-03-13T04:57:16;96608.59;;;16.98;55.94
43701;BME280;58809;47.984;7.964;2023-03-13T05:00:42;96585.97;;;16.89;55.96
43701;BME280;58809;47.984;7.964;2023-03-13T05:03:59;96597.47;;;16.66;56.47
43701;BME280;58809;47.984;7.964;2023-03-13T05:07:12;96598.16;;;16.61;56.76
43701;BME280;58809;47.984;7.964;2023-03-13T05:10:37;96591.88;;;16.67;57.17
43701;BME280;58809;47.984;7.964;2023-03-13T05:13:59;96601.78;;;16.43;58.67
43701;BME280;58809;47.984;7.964;2023-03-13T05:17:23;96606.50;;;16.06;61.13
43701;BME280;58809;47.984;7.964;2023-03-13T05:20:47;96588.19;;;15.67;62.26
43701;BME280;58809;47.984;7.964;2023-03-13T05:24:02;96535.03;;;15.84;62.71
43701;BME280;58809;47.984;7.964;2023-03-13T05:27:20;96574.38;;;16.01;62.57
43701;BME280;58809;47.984;7.964;2023-03-13T05:30:46;96580.31;;;16.03;62.80
43701;BME280;58809;47.984;7.964;2023-03-13T05:34:11;96572.88;;;16.05;62.90
43701;BME280;58809;47.984;7.964;2023-03-13T05:37:48;96570.09;;;16.23;62.02
43701;BME280;58809;47.984;7.964;2023-03-13T05:40:49;96578.56;;;16.44;61.18
43701;BME280;58809;47.984;7.964;2023-03-13T05:44:10;96574.09;;;16.73;60.53
43701;BME280;58809;47.984;7.964;2023-03-13T05:47:30;96590.13;;;16.73;59.65
43701;BME280;58809;47.984;7.964;2023-03-13T05:50:37;96574.03;;;16.56;60.32
43701;BME280;58809;47.984;7.964;2023-03-13T05:53:59;96603.16;;;16.58;60.06
43701;BME280;58809;47.984;7.964;2023-03-13T05:57:16;96572.00;;;16.87;59.44
43701;BME280;58809;47.984;7.964;2023-03-13T06:00:49;96589.19;;;16.91;59.04
43701;BME280;58809;47.984;7.964;2023-03-13T06:04:11;96579.91;;;16.82;59.56
43701;BME280;58809;47.984;7.964;2023-03-13T06:07:14;96588.72;;;16.82;59.68
43701;BME280;58809;47.984;7.964;2023-03-13T06:10:16;96569.22;;;16.82;59.37
43701;BME280;58809;47.984;7.964;2023-03-13T06:13:18;96566.09;;;17.13;58.95
43701;BME280;58809;47.984;7.964;2023-03-13T06:16:24;96588.25;;;16.97;58.84
43701;BME280;58809;47.984;7.964;2023-03-13T06:19:30;96572.81;;;16.87;59.03
43701;BME280;58809;47.984;7.964;2023-03-13T06:22:31;96559.97;;;17.01;59.00
43701;BME280;58809;47.984;7.964;2023-03-13T06:25:34;96578.50;;;17.20;58.51
43701;BME280;58809;47.984;7.964;2023-03-13T06:28:35;96577.44;;;17.04;59.01
43701;BME280;58809;47.984;7.964;2023-03-13T06:31:37;96559.75;;;17.03;59.41
43701;BME280;58809;47.984;7.964;2023-03-13T06:34:39;96559.13;;;17.12;59.64
43701;BME280;58809;47.984;7.964;2023-03-13T06:37:40;96568.47;;;17.56;58.39
43701;BME280;58809;47.984;7.964;2023-03-13T06:40:42;96550.56;;;17.56;58.05
43701;BME280;58809;47.984;7.964;2023-03-13T06:43:45;96562.22;;;17.33;58.34
43701;BME280;58809;47.984;7.964;2023-03-13T06:46:46;96571.13;;;17.39;58.56
43701;BME280;58809;47.984;7.964;2023-03-13T06:49:48;96563.25;;;17.32;59.08
43701;BME280;58809;47.984;7.964;2023-03-13T06:52:50;96568.63;;;17.49;58.42
43701;BME280;58809;47.984;7.964;2023-03-13T06:55:53;96576.97;;;17.52;58.28
43701;BME280;58809;47.984;7.964;2023-03-13T06:58:54;96571.63;;;17.52;58.41
43701;BME280;58809;47.984;7.964;2023-03-13T07:01:58;96596.47;;;17.36;58.68
43701;BME280;58809;47.984;7.964;2023-03-13T07:05:00;96601.13;;;17.41;58.91
43701;BME280;58809;47.984;7.964;2023-03-13T07:08:06;96630.34;;;17.59;58.50
43701;BME280;58809;47.984;7.964;2023-03-13T07:11:09;96618.41;;;17.50;58.28
43701;BME280;58809;47.984;7.964;2023-03-13T07:14:11;96610.19;;;17.40;58.74
43701;BME280;58809;47.984;7.964;2023-03-13T07:17:17;96614.16;;;17.66;58.12
43701;BME280;58809;47.984;7.964;2023-03-13T07:20:19;96620.63;;;17.70;58.08
43701;BME280;58809;47.984;7.964;2023-03-13T07:23:22;96598.75;;;17.73;58.18
43701;BME280;58809;47.984;7.964;2023-03-13T07:26:24;96610.16;;;17.97;57.65
43701;BME280;58809;47.984;7.964;2023-03-13T07:29:25;96601.16;;;18.03;57.41
43701;BME280;58809;47.984;7.964;2023-03-13T07:32:30;96608.28;;;17.98;57.30
43701;BME280;58809;47.984;7.964;2023-03-13T07:35:33;96633.69;;;18.12;57.24
43701;BME280;58809;47.984;7.964;2023-03-13T07:38:35;96596.53;;;17.99;57.45
43701;BME280;58809;47.984;7.964;2023-03-13T07:41:37;96581.03;;;18.18;57.26
43701;BME280;58809;47.984;7.964;2023-03-13T07:44:40;96597.31;;;18.33;57.07
43701;BME280;58809;47.984;7.964;2023-03-13T07:47:41;96616.69;;;18.40;56.59
43701;BME280;58809;47.984;7.964;2023-03-13T07:50:43;96585.91;;;18.60;56.36
43701;BME280;58809;47.984;7.964;2023-03-13T07:53:45;96570.94;;;18.81;55.86
43701;BME280;58809;47.984;7.964;2023-03-13T07:56:50;96579.25;;;19.01;55.48
43701;BME280;58809;47.984;7.964;2023-03-13T07:59:52;96572.31;;;19.06;55.16
43701;BME280;58809;47.984;7.964;2023-03-13T08:02:55;96571.25;;;19.34;54.53
43701;BME280;58809;47.984;7.964;2023-03-13T08:05:58;96567.03;;;19.16;54.45
43701;BME280;58809;47.984;7.964;2023-03-13T08:09:00;96543.50;;;19.18;54.16
43701;BME280;58809;47.984;7.964;2023-03-13T08:12:02;96554.41;;;19.11;53.24
43701;BME280;58809;47.984;7.964;2023-03-13T08:15:04;96554.38;;;19.33;52.79
43701;BME280;58809;47.984;7.964;2023-03-13T08:18:06;96544.75;;;19.37;52.76
43701;BME280;58809;47.984;7.964;2023-03-13T08:21:13;96545.47;;;19.28;52.79
43701;BME280;58809;47.984;7.964;2023-03-13T08:24:15;96544.91;;;19.53;52.65
43701;BME280;58809;47.984;7.964;2023-03-13T08:27:17;96548.34;;;19.48;52.26
43701;BME280;58809;47.984;7.964;2023-03-13T08:30:18;96531.44;;;19.48;52.58
43701;BME280;58809;47.984;7.964;2023-03-13T08:33:20;96525.25;;;19.74;52.20
43701;BME280;58809;47.984;7.964;2023-03-13T08:36:31;96530.91;;;19.78;52.13
43701;BME280;58809;47.984;7.964;2023-03-13T08:39:33;96520.22;;;19.56;52.46
43701;BME280;58809;47.984;7.964;2023-03-13T08:42:35;96537.53;;;19.70;52.07
43701;BME280;58809;47.984;7.964;2023-03-13T08:45:37;96523.25;;;19.92;51.67
43701;BME280;58809;47.984;7.964;2023-03-13T08:48:39;96532.81;;;20.20;51.11
43701;BME280;58809;47.984;7.964;2023-03-13T08:51:41;96508.13;;;20.23;50.76
43701;BME280;58809;47.984;7.964;2023-03-13T08:54:42;96515.84;;;20.57;50.19
43701;BME280;58809;47.984;7.964;2023-03-13T08:57:44;96495.09;;;20.47;50.17
43701;BME280;58809;47.984;7.964;2023-03-13T09:00:46;96502.50;;;20.72;49.76
43701;BME280;58809;47.984;7.964;2023-03-13T09:03:48;96511.91;;;20.70;49.75
43701;BME280;58809;47.984;7.964;2023-03-13T09:06:50;96486.31;;;20.62;49.69
43701;BME280;58809;47.984;7.964;2023-03-13T09:09:51;96484.84;;;21.02;49.33
43701;BME280;58809;47.984;7.964;2023-03-13T09:12:53;96481.63;;;21.05;48.95
43701;BME280;58809;47.984;7.964;2023-03-13T09:18:57;96476.03;;;21.38;48.13
43701;BME280;58809;47.984;7.964;2023-03-13T09:21:59;96458.56;;;21.56;48.19
43701;BME280;58809;47.984;7.964;2023-03-13T09:25:01;96455.59;;;21.72;47.71
43701;BME280;58809;47.984;7.964;2023-03-13T09:28:02;96451.84;;;21.63;47.63
43701;BME280;58809;47.984;7.964;2023-03-13T09:31:09;96454.53;;;21.63;47.49
43701;BME280;58809;47.984;7.964;2023-03-13T09:34:11;96438.91;;;21.60;47.37
43701;BME280;58809;47.984;7.964;2023-03-13T09:37:13;96437.81;;;21.61;47.58
43701;BME280;58809;47.984;7.964;2023-03-13T09:40:16;96438.09;;;21.70;47.69
43701;BME280;58809;47.984;7.964;2023-03-13T09:43:59;96420.59;;;21.57;47.92
43701;BME280;58809;47.984;7.964;2023-03-13T09:50:22;96428.09;;;21.96;47.20
43701;BME280;58809;47.984;7.964;2023-03-13T09:53:39;96415.34;;;22.22;46.88
43701;BME280;58809;47.984;7.964;2023-03-13T09:56:45;96398.06;;;22.44;46.39
43701;BME280;58809;47.984;7.964;2023-03-13T09:59:54;96389.22;;;22.28;45.78
43701;BME280;58809;47.984;7.964;2023-03-13T10:03:04;96388.09;;;22.39;45.80
43701;BME280;58809;47.984;7.964;2023-03-13T10:06:15;96368.19;;;22.30;45.57
43701;BME280;58809;47.984;7.964;2023-03-13T10:09:25;96371.94;;;22.29;45.73
43701;BME280;58809;47.984;7.964;2023-03-13T10:12:36;96373.03;;;22.33;45.56
43701;BME280;58809;47.984;7.964;2023-03-13T10:15:47;96367.28;;;22.50;45.25
43701;BME280;58809;47.984;7.964;2023-03-13T10:18:54;96364.19;;;22.72;44.92
43701;BME280;58809;47.984;7.964;2023-03-13T10:21:58;96363.44;;;23.06;44.34
43701;BME280;58809;47.984;7.964;2023-03-13T10:25:08;96348.06;;;23.01;44.41
43701;BME280;58809;47.984;7.964;2023-03-13T10:28:16;96344.88;;;23.34;44.11
43701;BME280;58809;47.984;7.964;2023-03-13T10:31:32;96328.84;;;23.42;43.79
43701;BME280;58809;47.984;7.964;2023-03-13T10:34:52;96342.97;;;23.63;43.49
43701;BME280;58809;47.984;7.964;2023-03-13T10:38:01;96318.91;;;23.91;43.54
43701;BME280;58809;47.984;7.964;2023-03-13T10:41:17;96319.94;;;23.95;43.52
43701;BME280;58809;47.984;7.964;2023-03-13T10:44:29;96290.81;;;23.92;43.11
43701;BME280;58809;47.984;7.964;2023-03-13T10:47:32;96298.03;;;23.97;43.19
43701;BME280;58809;47.984;7.964;2023-03-13T10:50:35;96288.72;;;23.84;42.73
43701;BME280;58809;47.984;7.964;2023-03-13T10:53:36;96286.03;;;23.84;42.62
43701;BME280;58809;47.984;7.964;2023-03-13T10:56:38;96276.38;;;23.78;42.78
43701;BME280;58809;47.984;7.964;2023-03-13T10:59:44;96261.31;;;23.96;42.79
43701;BME280;58809;47.984;7.964;2023-03-13T11:02:46;96254.97;;;24.25;42.14
43701;BME280;58809;47.984;7.964;2023-03-13T11:05:59;96239.03;;;24.61;41.63
43701;BME280;58809;47.984;7.964;2023-03-13T11:09:27;96228.00;;;24.57;40.05
43701;BME280;58809;47.984;7.964;2023-03-13T11:12:32;96234.00;;;24.16;40.80
43701;BME280;58809;47.984;7.964;2023-03-13T11:15:40;96226.47;;;23.94;41.63
43701;BME280;58809;47.984;7.964;2023-03-13T11:18:59;96220.59;;;22.85;43.71
43701;BME280;58809;47.984;7.964;2023-03-13T11:28:59;96192.50;;;23.21;43.19
43701;BME280;58809;47.984;7.964;2023-03-13T11:32:16;96193.03;;;23.23;43.06
43701;BME280;58809;47.984;7.964;2023-03-13T11:38:43;96174.28;;;23.56;42.76
43701;BME280;58809;47.984;7.964;2023-03-13T11:48:09;96154.44;;;23.66;42.38
43701;BME280;58809;47.984;7.964;2023-03-13T11:58:05;96142.91;;;24.17;41.94
43701;BME280;58809;47.984;7.964;2023-03-13T12:01:17;96134.19;;;24.39;41.05
43701;BME280;58809;47.984;7.964;2023-03-13T12:04:32;96138.31;;;24.69;40.58
43701;BME280;58809;47.984;7.964;2023-03-13T12:07:38;96115.53;;;28.48;35.84
43701;BME280;58809;47.984;7.964;2023-03-13T12:10:46;96098.06;;;29.05;33.87
43701;BME280;58809;47.984;7.964;2023-03-13T12:13:59;96121.81;;;29.04;33.99
43701;BME280;58809;47.984;7.964;2023-03-13T12:17:05;96094.63;;;28.87;33.94
43701;BME280;58809;47.984;7.964;2023-03-13T12:20:21;96075.53;;;28.95;33.56
43701;BME280;58809;47.984;7.964;2023-03-13T12:26:48;96069.59;;;28.55;34.12
43701;BME280;58809;47.984;7.964;2023-03-13T12:29:58;96056.31;;;28.62;33.46
43701;BME280;58809;47.984;7.964;2023-03-13T12:33:25;96046.06;;;28.97;33.27
43701;BME280;58809;47.984;7.964;2023-03-13T12:36:37;96027.06;;;28.89;33.46
43701;BME280;58809;47.984;7.964;2023-03-13T12:43:09;96017.19;;;29.05;33.21
43701;BME280;58809;47.984;7.964;2023-03-13T12:46:24;96007.75;;;29.03;33.05
43701;BME280;58809;47.984;7.964;2023-03-13T12:49:40;95999.97;;;29.22;32.60
43701;BME280;58809;47.984;7.964;2023-03-13T12:59:37;95968.13;;;29.56;32.24
43701;BME280;58809;47.984;7.964;2023-03-13T13:02:40;95948.31;;;29.68;31.88
43701;BME280;58809;47.984;7.964;2023-03-13T13:09:16;95934.53;;;30.43;31.46
43701;BME280;58809;47.984;7.964;2023-03-13T13:12:24;95933.44;;;30.11;30.98
43701;BME280;58809;47.984;7.964;2023-03-13T13:15:27;95917.75;;;29.62;31.62
43701;BME280;58809;47.984;7.964;2023-03-13T13:18:32;95906.41;;;29.72;31.81
43701;BME280;58809;47.984;7.964;2023-03-13T13:21:34;95900.44;;;29.79;32.15
43701;BME280;58809;47.984;7.964;2023-03-13T13:24:48;95890.31;;;29.80;31.69
43701;BME280;58809;47.984;7.964;2023-03-13T13:27:50;95891.91;;;29.81;32.32
43701;BME280;58809;47.984;7.964;2023-03-13T13:30:54;95890.38;;;30.29;32.21
43701;BME280;58809;47.984;7.964;2023-03-13T13:33:56;95880.59;;;30.16;32.25
43701;BME280;58809;47.984;7.964;2023-03-13T13:36:59;95879.13;;;30.80;31.82
43701;BME280;58809;47.984;7.964;2023-03-13T13:40:28;95880.13;;;31.00;31.49
43701;BME280;58809;47.984;7.964;2023-03-13T13:44:13;95881.19;;;30.46;31.83
43701;BME280;58809;47.984;7.964;2023-03-13T13:47:23;95868.09;;;30.14;32.64
43701;BME280;58809;47.984;7.964;2023-03-13T13:50:27;95864.44;;;29.86;33.14
43701;BME280;58809;47.984;7.964;2023-03-13T13:57:05;95854.47;;;29.02;34.73
43701;BME280;58809;47.984;7.964;2023-03-13T14:00:20;95846.56;;;28.67;35.10
43701;BME280;58809;47.984;7.964;2023-03-13T14:03:29;95843.13;;;28.49;35.32
43701;BME280;58809;47.984;7.964;2023-03-13T14:06:34;95836.63;;;28.12;35.88
43701;BME280;58809;47.984;7.964;2023-03-13T14:09:46;95829.06;;;27.79;36.45
43701;BME280;58809;47.984;7.964;2023-03-13T14:12:53;95829.53;;;27.90;36.25
43701;BME280;58809;47.984;7.964;2023-03-13T14:15:55;95818.66;;;28.19;36.32
43701;BME280;58809;47.984;7.964;2023-03-13T14:18:56;95811.34;;;28.41;35.99
43701;BME280;58809;47.984;7.964;2023-03-13T14:21:59;95813.94;;;28.37;36.10
43701;BME280;58809;47.984;7.964;2023-03-13T14:25:00;95806.84;;;28.15;36.43
43701;BME280;58809;47.984;7.964;2023-03-13T14:28:02;95802.38;;;28.40;36.03
43701;BME280;58809;47.984;7.964;2023-03-13T14:31:05;95807.19;;;29.40;35.01
43701;BME280;58809;47.984;7.964;2023-03-13T14:34:11;95783.22;;;30.69;33.56
43701;BME280;58809;47.984;7.964;2023-03-13T14:37:36;95794.66;;;30.46;33.24
43701;BME280;58809;47.984;7.964;2023-03-13T14:40:38;95789.56;;;30.45;33.65
43701;BME280;58809;47.984;7.964;2023-03-13T14:43:41;95775.81;;;30.04;33.54
43701;BME280;58809;47.984;7.964;2023-03-13T14:46:42;95758.59;;;29.42;34.01
43701;BME280;58809;47.984;7.964;2023-03-13T14:49:46;95755.94;;;29.21;33.97
43701;BME280;58809;47.984;7.964;2023-03-13T14:52:53;95755.09;;;29.54;33.74
43701;BME280;58809;47.984;7.964;2023-03-13T14:56:15;95749.66;;;30.28;32.69
43701;BME280;58809;47.984;7.964;2023-03-13T14:59:24;95731.50;;;30.60;33.00
43701;BME280;58809;47.984;7.964;2023-03-13T15:02:30;95728.78;;;30.60;32.69
43701;BME280;58809;47.984;7.964;2023-03-13T15:05:33;95714.28;;;30.31;32.85
43701;BME280;58809;47.984;7.964;2023-03-13T15:08:39;95707.50;;;30.13;32.64
43701;BME280;58809;47.984;7.964;2023-03-13T15:11:52;95682.97;;;30.54;32.19
43701;BME280;58809;47.984;7.964;2023-03-13T15:14:55;95676.31;;;30.67;31.79
43701;BME280;58809;47.984;7.964;2023-03-13T15:17:58;95669.88;;;30.59;31.80
43701;BME280;58809;47.984;7.964;2023-03-13T15:24:14;95641.75;;;30.87;31.36
43701;BME280;58809;47.984;7.964;2023-03-13T15:27:17;95629.97;;;31.31;30.92
43701;BME280;58809;47.984;7.964;2023-03-13T15:30:21;95630.84;;;31.03;30.35
43701;BME280;58809;47.984;7.964;2023-03-13T15:33:26;95627.72;;;30.73;30.91
43701;BME280;58809;47.984;7.964;2023-03-13T15:36:30;95620.16;;;30.25;31.28
43701;BME280;58809;47.984;7.964;2023-03-13T15:39:32;95619.19;;;30.18;31.54
43701;BME280;58809;47.984;7.964;2023-03-13T15:42:33;95620.19;;;29.85;31.60
43701;BME280;58809;47.984;7.964;2023-03-13T15:45:37;95618.84;;;29.54;32.30
43701;BME280;58809;47.984;7.964;2023-03-13T15:48:40;95605.78;;;29.23;32.52
43701;BME280;58809;47.984;7.964;2023-03-13T15:51:42;95601.84;;;29.20;32.60
43701;BME280;58809;47.984;7.964;2023-03-13T15:54:45;95598.84;;;29.01;32.74
43701;BME280;58809;47.984;7.964;2023-03-13T15:57:48;95592.50;;;29.09;32.86
43701;BME280;58809;47.984;7.964;2023-03-13T16:00:51;95577.28;;;29.08;32.95
43701;BME280;58809;47.984;7.964;2023-03-13T16:03:52;95566.50;;;29.11;33.32
43701;BME280;58809;47.984;7.964;2023-03-13T16:06:54;95560.16;;;29.32;33.13
43701;BME280;58809;47.984;7.964;2023-03-13T16:09:56;95540.81;;;29.62;33.08
43701;BME280;58809;47.984;7.964;2023-03-13T16:12:57;95541.22;;;30.77;31.93
43701;BME280;58809;47.984;7.964;2023-03-13T16:15:58;95530.53;;;32.29;30.54
43701;BME280;58809;47.984;7.964;2023-03-13T16:19:00;95516.34;;;34.33;28.03
43701;BME280;58809;47.984;7.964;2023-03-13T16:22:04;95502.53;;;31.77;30.35
43701;BME280;58809;47.984;7.964;2023-03-13T16:25:06;95488.28;;;29.89;32.48
43701;BME280;58809;47.984;7.964;2023-03-13T16:28:12;95480.06;;;28.84;33.23
43701;BME280;58809;47.984;7.964;2023-03-13T16:31:24;95483.19;;;28.49;33.90
43701;BME280;58809;47.984;7.964;2023-03-13T16:34:25;95475.97;;;29.02;33.53
43701;BME280;58809;47.984;7.964;2023-03-13T16:37:27;95490.69;;;33.54;28.82
43701;BME280;58809;47.984;7.964;2023-03-13T16:40:31;95476.91;;;35.63;26.44
43701;BME280;58809;47.984;7.964;2023-03-13T16:43:33;95484.66;;;36.49;25.27
43701;BME280;58809;47.984;7.964;2023-03-13T16:46:39;95473.97;;;36.19;25.39
43701;BME280;58809;47.984;7.964;2023-03-13T16:49:41;95464.56;;;36.31;24.81
43701;BME280;58809;47.984;7.964;2023-03-13T16:52:43;95445.22;;;36.02;24.75
43701;BME280;58809;47.984;7.964;2023-03-13T16:55:44;95434.84;;;34.04;26.23
43701;BME280;58809;47.984;7.964;2023-03-13T17:03:27;95405.06;;;29.11;30.89
43701;BME280;58809;47.984;7.964;2023-03-13T17:06:36;95404.31;;;28.36;31.77
43701;BME280;58809;47.984;7.964;2023-03-13T17:09:38;95394.94;;;27.55;32.65
43701;BME280;58809;47.984;7.964;2023-03-13T17:12:40;95386.69;;;27.09;33.03
43701;BME280;58809;47.984;7.964;2023-03-13T17:15:41;95362.88;;;26.73;33.83
43701;BME280;58809;47.984;7.964;2023-03-13T17:18:44;95377.50;;;26.50;34.23
43701;BME280;58809;47.984;7.964;2023-03-13T17:21:46;95363.59;;;26.22;34.23
43701;BME280;58809;47.984;7.964;2023-03-13T17:24:49;95375.47;;;26.09;34.63
43701;BME280;58809;47.984;7.964;2023-03-13T17:27:51;95358.59;;;26.33;34.82